Time;durP1;ratioP1;P1;durP2;ratioP2;P2;SDS_P1;SDS_P2;PMS_P1;PMS_P2;Temp;Humidity;BMP_temperature;BMP_pressure;BME280_temperature;BME280_humidity;BME280_pressure;Samples;Min_cycle;Max_cycle;Signal;HPM_P1;HPM_P2
2023/05/14 00:00:50;;;;;;;18.13;13.48;;;13.70;99.90;;;;;;5020003;28;20867;-76
2023/05/14 00:03:16;;;;;;;16.52;12.80;;;13.70;99.90;;;;;;5030632;28;20114;-77
2023/05/14 00:05:41;;;;;;;18.25;13.40;;;13.70;99.90;;;;;;5032263;28;20049;-79
2023/05/14 00:08:07;;;;;;;18.25;14.02;;;13.70;99.90;;;;;;5028359;28;20258;-75
2023/05/14 00:10:33;;;;;;;16.90;14.25;;;13.60;99.90;;;;;;5031143;28;20079;-76
2023/05/14 00:12:59;;;;;;;14.90;13.40;;;13.60;99.90;;;;;;5022480;28;20080;-76
2023/05/14 00:15:24;;;;;;;16.50;13.00;;;13.60;99.90;;;;;;5023521;28;20053;-74
2023/05/14 00:17:50;;;;;;;17.42;14.35;;;13.50;99.90;;;;;;5024247;28;20060;-77
2023/05/14 00:20:15;;;;;;;18.27;13.63;;;13.50;99.90;;;;;;5022401;28;20037;-73
2023/05/14 00:22:41;;;;;;;18.75;13.95;;;13.50;99.90;;;;;;5025863;28;20120;-74
2023/05/14 00:25:07;;;;;;;16.00;13.27;;;13.50;99.90;;;;;;5022021;28;20060;-74
2023/05/14 00:27:34;;;;;;;20.30;14.10;;;13.50;99.90;;;;;;5025343;28;20056;-75
2023/05/14 00:29:59;;;;;;;18.42;13.45;;;13.50;99.90;;;;;;5019017;28;20131;-73
2023/05/14 00:32:25;;;;;;;17.33;13.70;;;13.40;99.90;;;;;;5026701;28;20075;-74
2023/05/14 00:34:51;;;;;;;18.63;14.15;;;13.40;99.90;;;;;;5026035;28;20128;-74
2023/05/14 00:37:16;;;;;;;21.23;14.57;;;13.40;99.90;;;;;;5021985;28;20076;-75
2023/05/14 00:39:42;;;;;;;17.58;13.90;;;13.40;99.90;;;;;;5024314;28;20043;-75
2023/05/14 00:42:08;;;;;;;18.45;14.50;;;13.40;99.90;;;;;;5028358;28;20033;-76
2023/05/14 00:44:34;;;;;;;18.42;14.68;;;13.40;99.90;;;;;;5019244;28;20654;-74
2023/05/14 00:47:00;;;;;;;17.33;13.98;;;13.30;99.90;;;;;;5017107;28;20094;-74
2023/05/14 00:49:27;;;;;;;17.13;14.40;;;13.40;99.90;;;;;;5030120;28;20036;-75
2023/05/14 00:51:53;;;;;;;19.05;14.85;;;13.30;99.90;;;;;;5027759;28;20060;-76
2023/05/14 00:54:19;;;;;;;18.23;14.30;;;13.30;99.90;;;;;;5024562;28;20078;-76
2023/05/14 00:56:45;;;;;;;22.30;14.63;;;13.30;99.90;;;;;;5027465;28;20154;-76
2023/05/14 00:59:12;;;;;;;20.00;15.20;;;13.30;99.90;;;;;;5014856;28;20045;-74
2023/05/14 01:01:38;;;;;;;16.95;15.07;;;13.20;99.90;;;;;;5017163;28;20048;-75
2023/05/14 01:04:06;;;;;;;21.55;14.80;;;13.20;99.90;;;;;;5015985;28;20044;-74
2023/05/14 01:06:53;;;;;;;19.10;15.00;;;13.20;99.90;;;;;;5024683;28;20056;-73
2023/05/14 01:09:41;;;;;;;17.88;14.80;;;13.20;99.90;;;;;;5020537;28;20057;-75
2023/05/14 01:12:24;;;;;;;21.20;14.50;;;13.20;99.90;;;;;;5027525;28;20053;-78
2023/05/14 01:15:07;;;;;;;17.25;14.57;;;13.20;99.90;;;;;;5024024;28;20049;-76
2023/05/14 01:17:40;;;;;;;18.23;14.68;;;13.20;99.90;;;;;;5022389;28;20049;-75
2023/05/14 01:20:07;;;;;;;19.42;15.40;;;13.20;99.90;;;;;;5022692;28;20648;-77
2023/05/14 01:22:32;;;;;;;21.77;16.10;;;13.20;99.90;;;;;;5026379;28;20536;-76
2023/05/14 01:24:58;;;;;;;21.50;16.67;;;13.10;99.90;;;;;;5024078;28;20127;-76
2023/05/14 01:27:38;;;;;;;18.83;15.82;;;13.00;99.90;;;;;;5027456;28;21140;-74
2023/05/14 01:30:27;;;;;;;18.60;15.55;;;13.00;99.90;;;;;;5032722;28;20871;-74
2023/05/14 01:33:01;;;;;;;23.05;16.27;;;13.00;99.90;;;;;;5033147;28;20051;-76
2023/05/14 01:35:29;;;;;;;20.08;16.27;;;13.00;99.90;;;;;;5024069;28;20824;-76
2023/05/14 01:38:01;;;;;;;19.55;15.57;;;13.00;99.90;;;;;;5028307;28;20799;-76
2023/05/14 01:40:29;;;;;;;21.50;16.80;;;12.90;99.90;;;;;;5027641;28;20048;-75
2023/05/14 01:42:55;;;;;;;18.10;15.98;;;12.90;99.90;;;;;;5025926;28;20045;-73
2023/05/14 01:45:25;;;;;;;20.40;17.10;;;12.90;99.90;;;;;;5027597;28;20115;-74
2023/05/14 01:47:51;;;;;;;21.85;15.93;;;12.90;99.90;;;;;;5022345;28;20041;-73
2023/05/14 01:50:17;;;;;;;18.83;15.52;;;12.90;99.90;;;;;;5030337;28;20037;-75
2023/05/14 01:52:43;;;;;;;20.20;16.48;;;12.90;99.90;;;;;;5027276;28;20041;-76
2023/05/14 01:55:09;;;;;;;17.88;15.60;;;12.90;99.90;;;;;;5025028;28;20053;-74
2023/05/14 01:57:34;;;;;;;18.70;16.65;;;12.90;99.90;;;;;;5032306;28;20053;-74
2023/05/14 02:00:00;;;;;;;18.77;16.55;;;12.90;99.90;;;;;;5028847;28;20084;-75
2023/05/14 02:02:26;;;;;;;20.98;15.82;;;12.80;99.90;;;;;;5030292;28;20061;-75
2023/05/14 02:04:51;;;;;;;17.92;16.08;;;12.80;99.90;;;;;;5022451;28;20124;-76
2023/05/14 02:07:17;;;;;;;22.88;17.00;;;12.80;99.90;;;;;;5021732;28;20064;-77
2023/05/14 02:09:43;;;;;;;25.38;17.15;;;12.70;99.90;;;;;;5030846;28;20049;-76
2023/05/14 02:12:10;;;;;;;20.27;17.30;;;12.70;99.90;;;;;;5029347;28;20462;-74
2023/05/14 02:14:36;;;;;;;24.05;17.02;;;12.70;99.90;;;;;;5025429;28;20076;-77
2023/05/14 02:17:02;;;;;;;21.00;17.50;;;12.70;99.90;;;;;;5024724;28;20053;-74
2023/05/14 02:19:28;;;;;;;20.23;17.40;;;12.60;99.90;;;;;;5020009;28;20029;-72
2023/05/14 02:21:54;;;;;;;20.30;16.85;;;12.60;99.90;;;;;;5025669;28;20053;-75
2023/05/14 02:24:20;;;;;;;22.60;17.35;;;12.60;99.90;;;;;;5026394;28;20090;-75
2023/05/14 02:26:46;;;;;;;19.95;16.60;;;12.60;99.90;;;;;;5034158;28;20041;-74
2023/05/14 02:29:11;;;;;;;19.02;17.02;;;12.60;99.90;;;;;;5030811;28;20056;-74
2023/05/14 02:31:37;;;;;;;23.30;17.50;;;12.60;99.90;;;;;;5028035;28;20806;-74
2023/05/14 02:34:04;;;;;;;21.35;16.73;;;12.60;99.90;;;;;;5022632;28;20045;-73
2023/05/14 02:36:29;;;;;;;19.45;17.23;;;12.50;99.90;;;;;;5024340;28;20411;-75
2023/05/14 02:38:58;;;;;;;21.20;17.63;;;12.50;99.90;;;;;;5020484;28;20040;-75
2023/05/14 02:41:24;;;;;;;20.95;16.55;;;12.50;99.90;;;;;;5023501;28;20045;-74
2023/05/14 02:43:49;;;;;;;23.08;18.92;;;12.50;99.90;;;;;;5031512;28;20193;-73
2023/05/14 02:46:15;;;;;;;21.45;17.30;;;12.50;99.90;;;;;;5031215;28;20500;-73
2023/05/14 02:48:41;;;;;;;22.73;18.50;;;12.50;99.90;;;;;;5027700;28;20127;-74
2023/05/14 02:51:07;;;;;;;21.95;18.63;;;12.50;99.90;;;;;;5019217;28;20132;-75
2023/05/14 02:53:32;;;;;;;19.98;17.98;;;12.40;99.90;;;;;;5025366;28;20060;-74
2023/05/14 02:55:58;;;;;;;21.58;18.48;;;12.40;99.90;;;;;;5028320;28;20045;-72
2023/05/14 02:58:24;;;;;;;20.52;18.27;;;12.40;99.90;;;;;;5017122;28;20132;-75
2023/05/14 03:00:50;;;;;;;21.25;18.42;;;12.40;99.90;;;;;;5031271;28;20281;-74
2023/05/14 03:03:17;;;;;;;22.50;19.15;;;12.40;99.90;;;;;;5031013;28;20523;-74
2023/05/14 03:05:43;;;;;;;23.63;18.88;;;12.40;99.90;;;;;;5024672;28;20045;-74
2023/05/14 03:08:08;;;;;;;23.00;19.33;;;12.30;99.90;;;;;;5020978;28;20401;-74
2023/05/14 03:10:34;;;;;;;20.90;18.38;;;12.30;99.90;;;;;;5027597;28;20086;-76
2023/05/14 03:13:00;;;;;;;22.55;20.13;;;12.30;99.90;;;;;;5020834;28;20049;-74
2023/05/14 03:15:25;;;;;;;21.00;18.80;;;12.30;99.90;;;;;;5024221;28;20494;-72
2023/05/14 03:17:51;;;;;;;25.50;19.83;;;12.30;99.90;;;;;;5027351;28;20045;-75
2023/05/14 03:20:17;;;;;;;22.23;19.30;;;12.20;99.90;;;;;;5028506;28;20055;-75
2023/05/14 03:22:42;;;;;;;26.20;19.38;;;12.20;99.90;;;;;;5015230;28;20073;-73
2023/05/14 03:25:08;;;;;;;23.85;19.42;;;12.20;99.90;;;;;;5017522;28;20053;-74
2023/05/14 03:27:34;;;;;;;24.50;20.80;;;12.20;99.90;;;;;;5018336;28;20640;-74
2023/05/14 03:30:00;;;;;;;25.10;20.75;;;12.10;99.90;;;;;;5028181;28;20041;-72
2023/05/14 03:32:26;;;;;;;22.65;20.25;;;12.10;99.90;;;;;;5015859;28;20041;-77
2023/05/14 03:34:52;;;;;;;24.60;22.10;;;12.10;99.90;;;;;;5027321;28;20049;-75
2023/05/14 03:37:17;;;;;;;23.25;20.42;;;12.10;99.90;;;;;;5024078;28;20045;-73
2023/05/14 03:39:43;;;;;;;23.75;21.20;;;12.10;99.90;;;;;;5030238;28;20419;-72
2023/05/14 03:42:09;;;;;;;24.55;20.95;;;12.10;99.90;;;;;;5022132;28;20041;-75
2023/05/14 03:44:34;;;;;;;23.80;21.25;;;12.10;99.90;;;;;;5024822;28;20341;-75
2023/05/14 03:47:00;;;;;;;24.75;22.08;;;12.10;99.90;;;;;;5021009;28;20030;-74
2023/05/14 03:49:25;;;;;;;23.92;21.33;;;12.10;99.90;;;;;;5027335;28;20511;-74
2023/05/14 03:51:51;;;;;;;25.77;21.05;;;12.10;99.90;;;;;;5029083;28;20136;-74
2023/05/14 03:54:17;;;;;;;23.75;21.30;;;12.10;99.90;;;;;;5031367;28;20051;-72
2023/05/14 03:56:42;;;;;;;24.63;21.38;;;12.10;99.90;;;;;;5032574;28;20095;-73
2023/05/14 03:59:08;;;;;;;25.75;21.33;;;12.10;99.90;;;;;;5027265;28;20094;-72
2023/05/14 04:01:34;;;;;;;27.52;22.15;;;12.10;99.90;;;;;;5029046;28;20044;-74
2023/05/14 04:04:00;;;;;;;25.70;22.08;;;12.10;99.90;;;;;;5018324;28;20053;-75
2023/05/14 04:06:25;;;;;;;24.25;21.73;;;12.00;99.90;;;;;;5018215;28;20051;-75
2023/05/14 04:08:51;;;;;;;24.48;21.88;;;12.00;99.90;;;;;;5020044;28;20049;-75
2023/05/14 04:11:16;;;;;;;24.25;20.75;;;12.00;99.90;;;;;;5026143;28;20048;-75
2023/05/14 04:13:42;;;;;;;25.83;21.08;;;11.90;99.90;;;;;;5019890;28;20497;-73
2023/05/14 04:16:08;;;;;;;24.35;21.77;;;11.90;99.90;;;;;;5022651;28;20373;-75
2023/05/14 04:18:34;;;;;;;24.13;21.30;;;12.00;99.90;;;;;;5023288;28;20099;-74
2023/05/14 04:21:01;;;;;;;27.10;23.48;;;12.00;99.90;;;;;;5019759;28;20396;-74
2023/05/14 04:23:27;;;;;;;28.33;21.83;;;12.00;99.90;;;;;;5025148;28;20507;-72
2023/05/14 04:25:55;;;;;;;24.58;22.08;;;12.00;99.90;;;;;;5021701;28;20185;-74
2023/05/14 04:28:21;;;;;;;27.27;22.35;;;12.00;99.90;;;;;;5025120;28;20041;-75
2023/05/14 04:30:47;;;;;;;25.85;22.42;;;12.00;99.90;;;;;;5029193;28;20103;-75
2023/05/14 04:33:13;;;;;;;26.30;23.33;;;11.90;99.90;;;;;;5029065;28;20507;-73
2023/05/14 04:35:39;;;;;;;25.13;22.05;;;11.90;99.90;;;;;;5023615;28;20055;-74
2023/05/14 04:38:04;;;;;;;24.23;21.60;;;12.00;99.90;;;;;;5023035;28;20045;-72
2023/05/14 04:40:30;;;;;;;24.20;21.80;;;12.10;99.90;;;;;;5019092;28;20088;-76
2023/05/14 04:42:56;;;;;;;24.33;21.27;;;12.10;99.90;;;;;;5025311;28;20503;-76
2023/05/14 04:45:22;;;;;;;25.10;22.20;;;12.10;99.90;;;;;;5026264;28;20118;-73
2023/05/14 04:47:48;;;;;;;22.90;20.52;;;12.10;99.90;;;;;;5024871;28;20037;-74
2023/05/14 04:50:14;;;;;;;24.85;21.15;;;12.20;99.90;;;;;;5024758;28;21149;-72
2023/05/14 04:52:40;;;;;;;24.58;21.23;;;12.20;99.90;;;;;;5026347;28;20051;-77
2023/05/14 04:55:07;;;;;;;26.47;22.30;;;12.20;99.90;;;;;;5031771;28;20179;-74
2023/05/14 04:57:32;;;;;;;23.95;21.52;;;12.20;99.90;;;;;;5021845;28;20304;-74
2023/05/14 04:59:58;;;;;;;23.13;20.58;;;12.10;99.90;;;;;;5024162;28;20053;-73
2023/05/14 05:02:24;;;;;;;24.58;21.42;;;12.20;99.90;;;;;;5029175;28;20048;-74
2023/05/14 05:04:50;;;;;;;25.73;21.83;;;12.20;99.90;;;;;;5020260;28;20106;-76
2023/05/14 05:07:15;;;;;;;24.35;20.50;;;12.20;99.90;;;;;;5015573;28;20038;-74
2023/05/14 05:09:42;;;;;;;26.10;22.02;;;12.20;99.90;;;;;;5029618;28;20103;-72
2023/05/14 05:12:08;;;;;;;23.60;21.27;;;12.20;99.90;;;;;;5016378;28;20453;-74
2023/05/14 05:14:33;;;;;;;23.52;20.92;;;12.30;99.90;;;;;;5021421;28;20082;-72
2023/05/14 05:17:02;;;;;;;26.38;22.15;;;12.30;99.90;;;;;;5028337;28;20404;-74
2023/05/14 05:19:28;;;;;;;24.25;21.67;;;12.30;99.90;;;;;;5028451;28;20124;-74
2023/05/14 05:21:54;;;;;;;23.27;20.80;;;12.30;99.90;;;;;;5015945;28;20055;-74
2023/05/14 05:24:19;;;;;;;23.77;21.23;;;12.40;99.90;;;;;;5016960;28;20041;-75
2023/05/14 05:26:49;;;;;;;22.63;20.20;;;12.40;99.90;;;;;;5027845;28;20065;-76
2023/05/14 05:29:14;;;;;;;23.13;20.77;;;12.50;99.90;;;;;;5025765;28;20393;-75
2023/05/14 05:31:40;;;;;;;23.67;20.58;;;12.50;99.90;;;;;;5025843;28;20056;-74
2023/05/14 05:34:06;;;;;;;24.13;21.38;;;12.50;99.90;;;;;;5020759;28;20128;-73
2023/05/14 05:36:32;;;;;;;27.05;20.83;;;12.60;99.90;;;;;;5028542;28;21302;-76
2023/05/14 05:38:58;;;;;;;26.70;21.33;;;12.60;99.90;;;;;;5022904;28;20132;-75
2023/05/14 05:41:25;;;;;;;24.40;21.48;;;12.60;99.90;;;;;;5022981;28;20407;-74
2023/05/14 05:44:00;;;;;;;23.85;21.13;;;12.60;99.90;;;;;;5025370;28;20053;-76
2023/05/14 05:46:25;;;;;;;23.50;20.88;;;12.70;99.90;;;;;;5027906;28;20163;-73
2023/05/14 05:48:52;;;;;;;23.80;20.45;;;12.70;99.90;;;;;;5020576;28;20110;-72
2023/05/14 05:51:17;;;;;;;23.88;21.38;;;12.80;99.90;;;;;;5027524;28;20088;-76
2023/05/14 05:53:43;;;;;;;25.70;21.35;;;12.80;99.90;;;;;;5026077;28;20796;-72
2023/05/14 05:56:09;;;;;;;24.02;21.00;;;12.80;99.90;;;;;;5018229;28;20045;-72
2023/05/14 05:58:35;;;;;;;24.25;21.38;;;12.90;99.90;;;;;;5028701;28;20052;-74
2023/05/14 06:01:01;;;;;;;26.50;22.90;;;13.00;99.90;;;;;;5025309;28;20087;-75
2023/05/14 06:03:27;;;;;;;23.55;21.05;;;13.10;99.90;;;;;;5032253;28;20179;-73
2023/05/14 06:05:52;;;;;;;26.20;22.02;;;13.10;99.90;;;;;;5029433;28;20084;-74
2023/05/14 06:08:18;;;;;;;25.10;22.23;;;13.10;99.90;;;;;;5025413;28;20143;-71
2023/05/14 06:10:45;;;;;;;24.88;22.27;;;13.10;99.90;;;;;;5026322;28;20064;-71
2023/05/14 06:13:10;;;;;;;24.50;22.00;;;13.10;99.90;;;;;;5032825;28;20385;-77
2023/05/14 06:15:36;;;;;;;24.70;22.05;;;13.20;99.90;;;;;;5025205;28;20048;-74
2023/05/14 06:18:02;;;;;;;26.75;21.23;;;13.20;99.90;;;;;;5027132;28;20527;-72
2023/05/14 06:20:28;;;;;;;22.95;20.55;;;13.20;99.90;;;;;;5026072;28;20112;-75
2023/05/14 06:22:53;;;;;;;23.92;21.52;;;13.20;99.90;;;;;;5025488;28;20053;-73
2023/05/14 06:25:19;;;;;;;24.38;21.90;;;13.20;99.90;;;;;;5026599;28;20049;-76
2023/05/14 06:27:45;;;;;;;23.55;21.25;;;13.30;99.90;;;;;;5031032;28;20053;-73
2023/05/14 06:30:11;;;;;;;24.50;22.00;;;13.30;99.90;;;;;;5017835;28;20052;-73
2023/05/14 06:32:37;;;;;;;24.13;21.50;;;13.40;99.90;;;;;;5030921;28;21111;-74
2023/05/14 06:35:03;;;;;;;24.48;21.40;;;13.50;99.90;;;;;;5021640;28;20053;-74
2023/05/14 06:37:28;;;;;;;24.60;21.30;;;13.50;99.90;;;;;;5029172;28;20044;-73
2023/05/14 06:39:54;;;;;;;23.85;21.33;;;13.60;99.90;;;;;;5023198;28;20041;-75
2023/05/14 06:42:20;;;;;;;22.75;20.45;;;13.70;99.90;;;;;;5019380;28;20055;-75
2023/05/14 06:44:45;;;;;;;23.55;20.23;;;13.70;99.90;;;;;;5015561;28;20161;-72
2023/05/14 06:47:11;;;;;;;23.13;20.52;;;13.70;99.90;;;;;;5022515;28;20139;-75
2023/05/14 06:49:38;;;;;;;25.77;21.73;;;13.70;99.90;;;;;;5032153;28;20084;-73
2023/05/14 06:52:04;;;;;;;24.75;20.98;;;13.70;99.90;;;;;;5029873;28;20107;-76
2023/05/14 06:54:30;;;;;;;24.35;21.52;;;13.80;99.90;;;;;;5028660;28;20045;-74
2023/05/14 06:56:56;;;;;;;22.10;19.77;;;13.80;99.90;;;;;;5021683;28;20045;-74
2023/05/14 06:59:22;;;;;;;23.58;21.20;;;13.90;99.90;;;;;;5018083;28;20057;-74
2023/05/14 07:01:48;;;;;;;23.80;21.35;;;13.90;99.90;;;;;;5016707;28;21002;-72
2023/05/14 07:04:14;;;;;;;22.90;20.48;;;14.00;99.90;;;;;;5021620;28;20049;-71
2023/05/14 07:06:39;;;;;;;23.65;21.25;;;14.00;99.90;;;;;;5025146;28;20076;-73
2023/05/14 07:09:09;;;;;;;22.75;20.35;;;14.00;99.90;;;;;;5031585;28;20703;-72
2023/05/14 07:11:35;;;;;;;24.00;20.95;;;14.10;99.90;;;;;;5017543;28;20049;-72
2023/05/14 07:14:00;;;;;;;25.55;21.95;;;14.10;99.90;;;;;;5021493;28;20064;-72
2023/05/14 07:16:26;;;;;;;25.23;22.67;;;14.20;99.90;;;;;;5018079;28;20041;-73
2023/05/14 07:18:52;;;;;;;25.60;22.63;;;14.20;99.90;;;;;;5029044;28;20064;-74
2023/05/14 07:21:18;;;;;;;22.67;20.45;;;14.30;99.90;;;;;;5024888;28;20104;-71
2023/05/14 07:23:43;;;;;;;23.00;20.48;;;14.40;99.90;;;;;;5025661;28;20053;-73
2023/05/14 07:26:09;;;;;;;23.27;20.80;;;14.40;99.90;;;;;;5020348;28;20040;-71
2023/05/14 07:28:35;;;;;;;23.33;21.02;;;14.50;99.90;;;;;;5023511;28;20622;-71
2023/05/14 07:31:01;;;;;;;22.63;20.30;;;14.70;99.90;;;;;;5021613;28;20033;-71
2023/05/14 07:33:26;;;;;;;23.33;21.13;;;14.70;99.90;;;;;;5020464;28;20140;-72
2023/05/14 07:35:53;;;;;;;22.25;19.90;;;14.80;99.90;;;;;;5017633;28;20055;-72
2023/05/14 07:38:19;;;;;;;21.30;19.17;;;15.00;99.90;;;;;;5031569;28;20051;-71
2023/05/14 07:40:45;;;;;;;22.57;20.07;;;15.00;99.90;;;;;;5015432;28;20045;-72
2023/05/14 07:43:11;;;;;;;21.40;19.05;;;15.20;99.90;;;;;;5020058;28;20765;-73
2023/05/14 07:45:37;;;;;;;21.33;19.13;;;15.30;99.90;;;;;;5015617;28;20509;-72
2023/05/14 07:48:03;;;;;;;22.17;19.00;;;15.40;99.90;;;;;;5026219;28;20055;-70
2023/05/14 07:50:32;;;;;;;19.73;17.83;;;15.50;99.90;;;;;;5031297;28;21469;-72
2023/05/14 07:52:58;;;;;;;19.88;17.98;;;15.60;99.90;;;;;;5027861;28;20045;-72
2023/05/14 07:55:23;;;;;;;20.27;17.30;;;15.60;99.90;;;;;;5026396;28;20033;-71
2023/05/14 07:57:50;;;;;;;20.15;18.10;;;15.70;99.90;;;;;;5026205;28;20037;-69
2023/05/14 08:00:16;;;;;;;20.30;18.20;;;15.70;99.90;;;;;;5029032;28;20678;-70
2023/05/14 08:02:42;;;;;;;20.75;18.65;;;15.80;99.90;;;;;;5025417;28;20045;-70
2023/05/14 08:05:08;;;;;;;20.40;18.30;;;15.90;99.90;;;;;;5019448;28;20052;-72
2023/05/14 08:07:34;;;;;;;20.23;17.77;;;15.90;99.90;;;;;;5015671;28;20037;-70
2023/05/14 08:10:00;;;;;;;19.55;17.67;;;16.00;99.90;;;;;;5026915;28;20047;-72
2023/05/14 08:12:26;;;;;;;19.70;17.63;;;16.10;99.90;;;;;;5024875;28;20052;-70
2023/05/14 08:14:52;;;;;;;20.08;17.95;;;16.20;99.90;;;;;;5025275;28;20038;-71
2023/05/14 08:17:17;;;;;;;20.38;17.08;;;16.20;99.90;;;;;;5019123;28;20084;-72
2023/05/14 08:19:45;;;;;;;18.83;16.90;;;16.30;99.90;;;;;;5015213;28;20053;-70
2023/05/14 08:22:11;;;;;;;19.23;17.00;;;16.40;99.90;;;;;;5019517;28;20052;-72
2023/05/14 08:24:37;;;;;;;19.27;17.08;;;16.40;99.90;;;;;;5016933;28;20120;-69
2023/05/14 08:27:03;;;;;;;19.27;16.48;;;16.50;99.90;;;;;;5027298;28;20079;-70
2023/05/14 08:29:29;;;;;;;18.85;16.38;;;16.60;99.90;;;;;;5025237;28;20049;-72
2023/05/14 08:31:55;;;;;;;19.67;17.65;;;16.70;99.90;;;;;;5022215;28;20463;-67
2023/05/14 08:34:21;;;;;;;19.33;17.48;;;16.70;99.90;;;;;;5024397;28;20041;-71
2023/05/14 08:36:47;;;;;;;20.40;18.40;;;16.80;99.90;;;;;;5028947;28;20471;-70
2023/05/14 08:39:12;;;;;;;18.75;16.90;;;16.90;99.90;;;;;;5031594;28;20057;-70
2023/05/14 08:41:39;;;;;;;17.42;15.68;;;17.00;99.90;;;;;;5018852;28;20053;-69
2023/05/14 08:44:13;;;;;;;18.63;16.77;;;17.00;99.90;;;;;;5035775;28;20056;-70
2023/05/14 08:46:39;;;;;;;19.42;17.58;;;17.00;99.90;;;;;;5031228;28;20049;-71
2023/05/14 08:49:32;;;;;;;18.27;16.52;;;17.00;99.90;;;;;;5021584;28;20055;-72
2023/05/14 08:51:58;;;;;;;17.17;15.55;;;17.10;99.90;;;;;;5035802;28;20048;-71
2023/05/14 08:54:25;;;;;;;18.38;16.52;;;17.10;99.90;;;;;;5035787;28;20124;-72
2023/05/14 08:56:52;;;;;;;19.13;16.02;;;17.10;99.90;;;;;;5026871;28;20045;-73
2023/05/14 08:59:18;;;;;;;19.20;15.55;;;17.10;99.90;;;;;;5015467;28;20058;-72
2023/05/14 09:01:47;;;;;;;17.37;15.10;;;17.10;99.90;;;;;;5014986;28;20053;-71
2023/05/14 09:04:21;;;;;;;16.40;14.73;;;17.10;99.90;;;;;;5015697;28;21236;-70
2023/05/14 09:06:49;;;;;;;15.50;13.75;;;17.20;99.90;;;;;;5016599;28;20488;-70
2023/05/14 09:09:15;;;;;;;18.50;14.55;;;17.30;99.90;;;;;;5013805;28;20064;-70
2023/05/14 09:11:45;;;;;;;17.35;15.52;;;17.30;99.90;;;;;;5015198;28;20404;-72
2023/05/14 09:14:10;;;;;;;17.25;14.30;;;17.40;99.90;;;;;;5016867;28;20096;-72
2023/05/14 09:16:37;;;;;;;15.48;13.98;;;17.60;99.90;;;;;;5015326;28;20049;-74
2023/05/14 09:19:04;;;;;;;19.13;14.27;;;17.70;99.90;;;;;;5027571;28;20047;-72
2023/05/14 09:21:30;;;;;;;20.73;14.52;;;17.80;99.90;;;;;;5029058;28;20403;-71
2023/05/14 09:23:56;;;;;;;14.82;13.45;;;17.90;99.90;;;;;;5014826;28;20049;-72
2023/05/14 09:26:25;;;;;;;17.20;13.80;;;17.90;99.90;;;;;;5017088;28;20052;-71
2023/05/14 09:28:56;;;;;;;15.30;13.45;;;18.00;99.90;;;;;;5015492;28;20050;-71
2023/05/14 09:31:22;;;;;;;15.23;13.48;;;18.10;99.90;;;;;;5018594;28;20128;-71
2023/05/14 09:33:51;;;;;;;14.20;12.80;;;18.20;99.90;;;;;;5030367;28;20053;-71
2023/05/14 09:36:18;;;;;;;16.42;13.23;;;18.30;99.90;;;;;;5019331;28;20060;-73
2023/05/14 09:38:44;;;;;;;18.02;12.90;;;18.40;99.90;;;;;;5018953;28;20041;-73
2023/05/14 09:41:10;;;;;;;14.35;12.85;;;18.50;99.90;;;;;;5018654;28;20063;-71
2023/05/14 09:43:36;;;;;;;13.05;11.82;;;18.70;99.90;;;;;;5018427;28;20053;-71
2023/05/14 09:46:01;;;;;;;12.80;11.45;;;18.80;99.90;;;;;;5020284;28;20052;-72
2023/05/14 09:48:28;;;;;;;14.38;12.02;;;18.80;99.90;;;;;;5022235;28;20048;-71
2023/05/14 09:50:53;;;;;;;14.32;12.05;;;18.90;99.90;;;;;;5017990;28;20041;-72
2023/05/14 09:53:19;;;;;;;14.32;12.57;;;19.00;99.90;;;;;;5019211;28;20053;-72
2023/05/14 09:55:45;;;;;;;13.30;11.73;;;19.00;99.90;;;;;;5032983;28;20045;-71
2023/05/14 09:58:13;;;;;;;13.48;12.10;;;19.10;99.70;;;;;;5022219;28;20037;-72
2023/05/14 10:00:43;;;;;;;13.65;12.25;;;19.10;99.30;;;;;;5028600;28;20097;-71
2023/05/14 10:03:11;;;;;;;13.77;12.38;;;19.20;98.90;;;;;;5018169;28;20108;-72
2023/05/14 10:05:40;;;;;;;16.10;11.48;;;19.30;98.90;;;;;;5018777;28;20045;-72
2023/05/14 10:08:40;;;;;;;12.90;11.57;;;19.30;97.40;;;;;;5018920;28;20057;-72
2023/05/14 10:11:23;;;;;;;13.65;9.98;;;19.30;96.70;;;;;;5018445;28;20099;-71
2023/05/14 10:14:02;;;;;;;14.88;10.63;;;19.40;96.90;;;;;;5019035;28;20053;-72
2023/05/14 10:16:32;;;;;;;15.90;11.20;;;19.40;97.10;;;;;;5019921;28;20104;-71
2023/05/14 10:19:12;;;;;;;12.90;11.02;;;19.50;95.60;;;;;;5024557;28;20528;-72
2023/05/14 10:21:42;;;;;;;15.32;12.15;;;19.50;95.60;;;;;;5018261;28;20029;-74
2023/05/14 10:24:09;;;;;;;12.85;11.60;;;19.60;95.30;;;;;;5018300;28;20057;-72
2023/05/14 10:26:38;;;;;;;14.23;11.48;;;19.60;95.30;;;;;;5019106;28;20053;-71
2023/05/14 10:29:09;;;;;;;14.98;10.65;;;19.70;94.90;;;;;;5017019;28;20045;-73
2023/05/14 10:31:46;;;;;;;13.05;11.70;;;19.90;94.70;;;;;;5021541;28;20041;-72
2023/05/14 10:34:42;;;;;;;13.43;10.98;;;20.00;94.40;;;;;;5017024;28;20054;-73
2023/05/14 10:37:13;;;;;;;13.95;11.68;;;20.10;94.70;;;;;;5016314;28;20092;-71
2023/05/14 10:39:48;;;;;;;12.18;10.77;;;20.30;94.40;;;;;;5017883;28;20419;-70
2023/05/14 10:42:18;;;;;;;12.10;10.02;;;20.30;94.70;;;;;;5017260;28;20054;-71
2023/05/14 10:44:48;;;;;;;11.18;8.82;;;20.40;93.70;;;;;;5016174;28;20056;-72
2023/05/14 10:47:16;;;;;;;9.40;8.07;;;20.50;93.40;;;;;;5017726;28;20187;-71
2023/05/14 10:49:43;;;;;;;10.65;6.22;;;20.50;92.00;;;;;;5019375;28;20088;-72
2023/05/14 10:52:11;;;;;;;7.88;6.55;;;20.60;92.50;;;;;;5018885;28;20053;-72
2023/05/14 10:54:37;;;;;;;7.38;6.68;;;20.80;92.10;;;;;;5019804;28;20132;-72
2023/05/14 10:57:03;;;;;;;9.85;7.20;;;20.90;91.20;;;;;;5029892;28;20053;-74
2023/05/14 10:59:28;;;;;;;10.63;6.78;;;21.00;91.10;;;;;;5018005;28;20049;-71
2023/05/14 11:01:56;;;;;;;9.05;6.93;;;21.10;91.30;;;;;;5016699;28;20103;-73
2023/05/14 11:04:26;;;;;;;8.15;7.00;;;21.20;88.70;;;;;;5029349;28;20068;-72
2023/05/14 11:06:53;;;;;;;9.55;6.78;;;21.20;87.00;;;;;;5017012;28;20049;-72
2023/05/14 11:09:21;;;;;;;8.37;6.30;;;21.20;86.50;;;;;;5017499;28;20049;-71
2023/05/14 11:11:47;;;;;;;7.63;6.13;;;21.20;85.30;;;;;;5018233;28;20053;-71
2023/05/14 11:14:13;;;;;;;8.40;6.40;;;21.20;85.50;;;;;;5017831;28;20091;-72
2023/05/14 11:16:40;;;;;;;7.88;6.03;;;21.30;85.90;;;;;;5015492;28;20556;-71
2023/05/14 11:19:06;;;;;;;10.38;7.03;;;21.30;82.10;;;;;;5016461;28;20050;-72
2023/05/14 11:21:31;;;;;;;8.75;6.82;;;21.30;81.40;;;;;;5025732;28;20410;-72
2023/05/14 11:23:59;;;;;;;8.77;6.47;;;21.30;79.80;;;;;;5021860;28;20128;-73
2023/05/14 11:26:25;;;;;;;8.93;6.93;;;21.40;79.60;;;;;;5017353;28;20673;-71
2023/05/14 11:28:50;;;;;;;11.23;7.00;;;21.40;78.90;;;;;;5015870;28;20045;-72
2023/05/14 11:31:16;;;;;;;7.60;5.88;;;21.50;80.50;;;;;;5017262;28;20095;-72
2023/05/14 11:33:43;;;;;;;7.55;5.57;;;21.60;79.80;;;;;;5019218;28;20049;-71
2023/05/14 11:36:10;;;;;;;6.50;5.80;;;21.60;79.80;;;;;;5016453;28;20052;-71
2023/05/14 11:38:50;;;;;;;9.57;7.70;;;21.70;79.10;;;;;;5016945;28;20877;-72
2023/05/14 11:41:16;;;;;;;9.80;7.57;;;21.70;78.10;;;;;;5016830;28;20123;-71
2023/05/14 11:43:42;;;;;;;10.40;7.40;;;21.70;77.00;;;;;;5018127;28;20057;-72
2023/05/14 11:46:14;;;;;;;9.27;6.72;;;21.60;78.70;;;;;;5030445;28;20440;-72
2023/05/14 11:48:40;;;;;;;10.07;5.68;;;21.60;80.00;;;;;;5017584;28;20546;-71
2023/05/14 11:51:06;;;;;;;9.48;5.85;;;21.70;79.00;;;;;;5017565;28;20042;-72
2023/05/14 11:53:32;;;;;;;8.20;5.00;;;21.70;78.20;;;;;;5014886;28;20053;-71
2023/05/14 11:55:57;;;;;;;8.57;5.05;;;21.70;74.90;;;;;;5016110;28;20413;-71
2023/05/14 11:58:24;;;;;;;8.05;5.00;;;21.80;74.20;;;;;;5017100;28;20447;-72
2023/05/14 12:00:51;;;;;;;6.07;4.83;;;21.80;72.40;;;;;;5015720;28;20046;-73
2023/05/14 12:03:28;;;;;;;7.40;5.03;;;21.80;72.40;;;;;;5030785;28;20519;-72
2023/05/14 12:05:54;;;;;;;5.70;4.57;;;21.80;71.80;;;;;;5017049;28;20057;-71
2023/05/14 12:08:24;;;;;;;8.00;5.00;;;21.80;71.70;;;;;;5017925;28;20048;-71
2023/05/14 12:10:51;;;;;;;8.63;4.82;;;21.80;71.80;;;;;;5017951;28;20081;-72
2023/05/14 12:13:17;;;;;;;9.45;4.90;;;21.80;71.00;;;;;;5015801;28;20045;-72
2023/05/14 12:15:57;;;;;;;7.43;4.88;;;21.90;69.40;;;;;;5016128;28;20045;-72
2023/05/14 12:18:31;;;;;;;5.43;4.22;;;21.90;68.60;;;;;;5016143;28;20068;-72
2023/05/14 12:21:02;;;;;;;5.15;4.00;;;21.90;66.10;;;;;;5014064;28;20045;-74
2023/05/14 12:23:29;;;;;;;6.82;4.30;;;22.00;67.00;;;;;;5018907;28;20064;-72
2023/05/14 12:26:00;;;;;;;7.53;4.40;;;22.10;67.70;;;;;;5029616;28;20116;-71
2023/05/14 12:28:27;;;;;;;7.70;4.90;;;22.20;67.50;;;;;;5015870;28;20045;-72
2023/05/14 12:30:56;;;;;;;;;;;22.30;66.90;;;;;;5020408;28;20087;-72